sensor_id;sensor_type;location;lat;lon;timestamp;P1;durP1;ratioP1;P2;durP2;ratioP2
57947;SDS011;43754;56.992;24.292;2023-03-19T00:02:04;6.20;;;4.15;;
57947;SDS011;43754;56.992;24.292;2023-03-19T00:04:48;5.45;;;3.60;;
57947;SDS011;43754;56.992;24.292;2023-03-19T00:07:21;6.63;;;4.10;;
57947;SDS011;43754;56.992;24.292;2023-03-19T00:09:53;7.38;;;4.15;;
57947;SDS011;43754;56.992;24.292;2023-03-19T00:12:25;6.63;;;3.90;;
57947;SDS011;43754;56.992;24.292;2023-03-19T00:14:57;6.90;;;4.30;;
57947;SDS011;43754;56.992;24.292;2023-03-19T00:17:29;6.22;;;4.03;;
57947;SDS011;43754;56.992;24.292;2023-03-19T00:20:01;5.95;;;4.10;;
57947;SDS011;43754;56.992;24.292;2023-03-19T00:22:36;8.35;;;4.18;;
57947;SDS011;43754;56.992;24.292;2023-03-19T00:25:10;7.68;;;4.50;;
57947;SDS011;43754;56.992;24.292;2023-03-19T00:27:42;6.30;;;4.15;;
57947;SDS011;43754;56.992;24.292;2023-03-19T00:30:15;7.18;;;4.63;;
57947;SDS011;43754;56.992;24.292;2023-03-19T00:32:47;5.72;;;4.22;;
57947;SDS011;43754;56.992;24.292;2023-03-19T00:35:19;6.80;;;4.53;;
57947;SDS011;43754;56.992;24.292;2023-03-19T00:37:52;8.38;;;4.45;;
57947;SDS011;43754;56.992;24.292;2023-03-19T00:40:25;7.75;;;4.60;;
57947;SDS011;43754;56.992;24.292;2023-03-19T00:42:58;7.22;;;4.72;;
57947;SDS011;43754;56.992;24.292;2023-03-19T00:45:30;6.55;;;4.20;;
57947;SDS011;43754;56.992;24.292;2023-03-19T00:48:02;8.98;;;4.75;;
57947;SDS011;43754;56.992;24.292;2023-03-19T00:50:34;7.80;;;4.63;;
57947;SDS011;43754;56.992;24.292;2023-03-19T00:53:08;10.00;;;5.70;;
57947;SDS011;43754;56.992;24.292;2023-03-19T00:55:40;7.75;;;5.45;;
57947;SDS011;43754;56.992;24.292;2023-03-19T00:58:13;7.45;;;5.10;;
57947;SDS011;43754;56.992;24.292;2023-03-19T01:00:45;8.57;;;4.30;;
57947;SDS011;43754;56.992;24.292;2023-03-19T01:03:18;7.40;;;4.97;;
57947;SDS011;43754;56.992;24.292;2023-03-19T01:05:50;7.25;;;5.05;;
57947;SDS011;43754;56.992;24.292;2023-03-19T01:08:24;6.65;;;4.20;;
57947;SDS011;43754;56.992;24.292;2023-03-19T01:10:56;9.88;;;4.95;;
57947;SDS011;43754;56.992;24.292;2023-03-19T01:13:34;7.43;;;4.60;;
57947;SDS011;43754;56.992;24.292;2023-03-19T01:16:07;8.45;;;4.53;;
57947;SDS011;43754;56.992;24.292;2023-03-19T01:18:40;6.13;;;4.25;;
57947;SDS011;43754;56.992;24.292;2023-03-19T01:21:12;6.22;;;4.22;;
57947;SDS011;43754;56.992;24.292;2023-03-19T01:23:51;6.57;;;4.30;;
57947;SDS011;43754;56.992;24.292;2023-03-19T01:26:26;7.32;;;4.78;;
57947;SDS011;43754;56.992;24.292;2023-03-19T01:29:04;5.32;;;3.90;;
57947;SDS011;43754;56.992;24.292;2023-03-19T01:31:37;7.53;;;4.68;;
57947;SDS011;43754;56.992;24.292;2023-03-19T01:34:35;7.60;;;5.03;;
57947;SDS011;43754;56.992;24.292;2023-03-19T01:37:17;7.13;;;4.72;;
57947;SDS011;43754;56.992;24.292;2023-03-19T01:39:51;8.63;;;5.07;;
57947;SDS011;43754;56.992;24.292;2023-03-19T01:42:23;5.97;;;4.38;;
57947;SDS011;43754;56.992;24.292;2023-03-19T01:48:25;6.40;;;4.10;;
57947;SDS011;43754;56.992;24.292;2023-03-19T01:51:13;8.90;;;4.80;;
57947;SDS011;43754;56.992;24.292;2023-03-19T01:53:59;7.75;;;4.80;;
57947;SDS011;43754;56.992;24.292;2023-03-19T01:56:46;8.52;;;4.80;;
57947;SDS011;43754;56.992;24.292;2023-03-19T01:59:41;6.63;;;4.78;;
57947;SDS011;43754;56.992;24.292;2023-03-19T02:02:15;6.43;;;4.68;;
57947;SDS011;43754;56.992;24.292;2023-03-19T02:04:55;9.45;;;5.68;;
57947;SDS011;43754;56.992;24.292;2023-03-19T02:07:29;9.27;;;5.15;;
57947;SDS011;43754;56.992;24.292;2023-03-19T02:10:04;8.50;;;4.93;;
57947;SDS011;43754;56.992;24.292;2023-03-19T02:12:41;7.32;;;5.07;;
57947;SDS011;43754;56.992;24.292;2023-03-19T02:15:13;8.43;;;5.03;;
57947;SDS011;43754;56.992;24.292;2023-03-19T02:17:45;8.40;;;4.63;;
57947;SDS011;43754;56.992;24.292;2023-03-19T02:20:20;7.70;;;4.65;;
57947;SDS011;43754;56.992;24.292;2023-03-19T02:23:01;7.82;;;5.10;;
57947;SDS011;43754;56.992;24.292;2023-03-19T02:25:49;7.32;;;4.80;;
57947;SDS011;43754;56.992;24.292;2023-03-19T02:28:26;7.53;;;5.20;;
57947;SDS011;43754;56.992;24.292;2023-03-19T02:31:00;8.73;;;5.00;;
57947;SDS011;43754;56.992;24.292;2023-03-19T02:33:33;8.52;;;5.20;;
57947;SDS011;43754;56.992;24.292;2023-03-19T02:36:08;7.95;;;5.60;;
57947;SDS011;43754;56.992;24.292;2023-03-19T02:38:44;9.07;;;5.32;;
57947;SDS011;43754;56.992;24.292;2023-03-19T02:41:19;8.43;;;5.15;;
57947;SDS011;43754;56.992;24.292;2023-03-19T02:43:52;7.97;;;5.40;;
57947;SDS011;43754;56.992;24.292;2023-03-19T02:46:25;11.02;;;6.50;;
57947;SDS011;43754;56.992;24.292;2023-03-19T02:48:57;9.00;;;6.38;;
57947;SDS011;43754;56.992;24.292;2023-03-19T02:51:29;8.30;;;5.15;;
57947;SDS011;43754;56.992;24.292;2023-03-19T02:54:01;10.60;;;4.95;;
57947;SDS011;43754;56.992;24.292;2023-03-19T02:56:36;10.32;;;5.53;;
57947;SDS011;43754;56.992;24.292;2023-03-19T02:59:08;7.68;;;5.20;;
57947;SDS011;43754;56.992;24.292;2023-03-19T03:01:41;8.13;;;5.10;;
57947;SDS011;43754;56.992;24.292;2023-03-19T03:04:13;9.77;;;6.35;;
57947;SDS011;43754;56.992;24.292;2023-03-19T03:06:47;8.27;;;5.30;;
57947;SDS011;43754;56.992;24.292;2023-03-19T03:09:19;10.43;;;5.70;;
57947;SDS011;43754;56.992;24.292;2023-03-19T03:11:53;8.48;;;5.10;;
57947;SDS011;43754;56.992;24.292;2023-03-19T03:14:25;9.80;;;5.25;;
57947;SDS011;43754;56.992;24.292;2023-03-19T03:16:57;10.15;;;6.10;;
57947;SDS011;43754;56.992;24.292;2023-03-19T03:19:29;8.88;;;5.63;;
57947;SDS011;43754;56.992;24.292;2023-03-19T03:22:01;7.38;;;5.20;;
57947;SDS011;43754;56.992;24.292;2023-03-19T03:24:33;8.63;;;5.63;;
57947;SDS011;43754;56.992;24.292;2023-03-19T03:27:07;6.93;;;5.10;;
57947;SDS011;43754;56.992;24.292;2023-03-19T03:29:40;11.02;;;6.13;;
57947;SDS011;43754;56.992;24.292;2023-03-19T03:32:12;8.30;;;5.60;;
57947;SDS011;43754;56.992;24.292;2023-03-19T03:34:44;10.15;;;5.88;;
57947;SDS011;43754;56.992;24.292;2023-03-19T03:37:17;9.48;;;5.80;;
57947;SDS011;43754;56.992;24.292;2023-03-19T03:39:49;8.60;;;6.07;;
57947;SDS011;43754;56.992;24.292;2023-03-19T03:42:23;10.63;;;5.80;;
57947;SDS011;43754;56.992;24.292;2023-03-19T03:44:55;10.43;;;5.45;;
57947;SDS011;43754;56.992;24.292;2023-03-19T03:47:27;10.90;;;6.40;;
57947;SDS011;43754;56.992;24.292;2023-03-19T03:49:59;8.23;;;5.30;;
57947;SDS011;43754;56.992;24.292;2023-03-19T03:52:33;10.70;;;5.90;;
57947;SDS011;43754;56.992;24.292;2023-03-19T03:55:05;7.65;;;5.45;;
57947;SDS011;43754;56.992;24.292;2023-03-19T03:57:39;10.75;;;6.30;;
57947;SDS011;43754;56.992;24.292;2023-03-19T04:00:12;8.48;;;5.80;;
57947;SDS011;43754;56.992;24.292;2023-03-19T04:02:47;8.90;;;5.78;;
57947;SDS011;43754;56.992;24.292;2023-03-19T04:05:19;9.43;;;6.15;;
57947;SDS011;43754;56.992;24.292;2023-03-19T04:07:54;11.68;;;6.68;;
57947;SDS011;43754;56.992;24.292;2023-03-19T04:10:27;12.73;;;7.38;;
57947;SDS011;43754;56.992;24.292;2023-03-19T04:13:01;11.00;;;6.45;;
57947;SDS011;43754;56.992;24.292;2023-03-19T04:15:35;12.25;;;6.57;;
57947;SDS011;43754;56.992;24.292;2023-03-19T04:18:07;11.27;;;6.80;;
57947;SDS011;43754;56.992;24.292;2023-03-19T04:20:39;10.27;;;6.18;;
57947;SDS011;43754;56.992;24.292;2023-03-19T04:23:12;12.07;;;7.10;;
57947;SDS011;43754;56.992;24.292;2023-03-19T04:25:44;10.77;;;6.50;;
57947;SDS011;43754;56.992;24.292;2023-03-19T04:28:18;11.18;;;6.72;;
57947;SDS011;43754;56.992;24.292;2023-03-19T04:30:50;10.25;;;6.13;;
57947;SDS011;43754;56.992;24.292;2023-03-19T04:33:24;12.25;;;7.00;;
57947;SDS011;43754;56.992;24.292;2023-03-19T04:35:57;11.57;;;7.93;;
57947;SDS011;43754;56.992;24.292;2023-03-19T04:38:30;15.23;;;7.85;;
57947;SDS011;43754;56.992;24.292;2023-03-19T04:41:02;12.73;;;8.88;;
57947;SDS011;43754;56.992;24.292;2023-03-19T04:43:39;12.48;;;8.00;;
57947;SDS011;43754;56.992;24.292;2023-03-19T04:46:12;11.38;;;6.57;;
57947;SDS011;43754;56.992;24.292;2023-03-19T04:48:44;10.60;;;7.00;;
57947;SDS011;43754;56.992;24.292;2023-03-19T04:51:17;8.85;;;6.47;;
57947;SDS011;43754;56.992;24.292;2023-03-19T04:53:51;13.55;;;8.07;;
57947;SDS011;43754;56.992;24.292;2023-03-19T04:56:23;18.17;;;9.80;;
57947;SDS011;43754;56.992;24.292;2023-03-19T04:58:57;16.02;;;10.10;;
57947;SDS011;43754;56.992;24.292;2023-03-19T05:01:29;17.83;;;10.65;;
57947;SDS011;43754;56.992;24.292;2023-03-19T05:04:08;20.30;;;15.90;;
57947;SDS011;43754;56.992;24.292;2023-03-19T05:06:41;18.52;;;14.02;;
57947;SDS011;43754;56.992;24.292;2023-03-19T05:09:13;27.67;;;14.23;;
57947;SDS011;43754;56.992;24.292;2023-03-19T05:11:46;27.63;;;17.85;;
57947;SDS011;43754;56.992;24.292;2023-03-19T05:14:25;41.00;;;25.90;;
57947;SDS011;43754;56.992;24.292;2023-03-19T05:17:05;24.25;;;15.95;;
57947;SDS011;43754;56.992;24.292;2023-03-19T05:20:00;24.15;;;14.75;;
57947;SDS011;43754;56.992;24.292;2023-03-19T05:22:37;20.50;;;11.98;;
57947;SDS011;43754;56.992;24.292;2023-03-19T05:25:09;16.92;;;10.38;;
57947;SDS011;43754;56.992;24.292;2023-03-19T05:27:43;21.38;;;12.98;;
57947;SDS011;43754;56.992;24.292;2023-03-19T05:30:23;20.33;;;11.20;;
57947;SDS011;43754;56.992;24.292;2023-03-19T05:33:17;17.52;;;9.63;;
57947;SDS011;43754;56.992;24.292;2023-03-19T05:35:50;17.50;;;9.25;;
57947;SDS011;43754;56.992;24.292;2023-03-19T05:38:31;18.20;;;10.70;;
57947;SDS011;43754;56.992;24.292;2023-03-19T05:41:08;17.40;;;9.30;;
57947;SDS011;43754;56.992;24.292;2023-03-19T05:43:51;17.45;;;10.60;;
57947;SDS011;43754;56.992;24.292;2023-03-19T05:46:40;14.13;;;9.43;;
57947;SDS011;43754;56.992;24.292;2023-03-19T05:49:13;16.17;;;9.38;;
57947;SDS011;43754;56.992;24.292;2023-03-19T05:51:46;16.17;;;9.38;;
57947;SDS011;43754;56.992;24.292;2023-03-19T05:54:18;16.45;;;8.55;;
57947;SDS011;43754;56.992;24.292;2023-03-19T05:57:13;13.82;;;8.80;;
57947;SDS011;43754;56.992;24.292;2023-03-19T05:59:52;14.10;;;9.13;;
57947;SDS011;43754;56.992;24.292;2023-03-19T06:02:45;15.15;;;9.20;;
57947;SDS011;43754;56.992;24.292;2023-03-19T06:05:36;17.52;;;8.75;;
57947;SDS011;43754;56.992;24.292;2023-03-19T06:08:22;15.13;;;8.68;;
57947;SDS011;43754;56.992;24.292;2023-03-19T06:11:08;12.25;;;8.38;;
57947;SDS011;43754;56.992;24.292;2023-03-19T06:13:42;12.75;;;7.97;;
57947;SDS011;43754;56.992;24.292;2023-03-19T06:16:18;13.90;;;8.40;;
57947;SDS011;43754;56.992;24.292;2023-03-19T06:19:01;12.80;;;7.97;;
57947;SDS011;43754;56.992;24.292;2023-03-19T06:21:34;13.43;;;7.55;;
57947;SDS011;43754;56.992;24.292;2023-03-19T06:24:07;11.88;;;7.72;;
57947;SDS011;43754;56.992;24.292;2023-03-19T06:26:39;13.77;;;9.38;;
57947;SDS011;43754;56.992;24.292;2023-03-19T06:29:18;14.63;;;8.13;;
57947;SDS011;43754;56.992;24.292;2023-03-19T06:31:54;13.00;;;8.32;;
57947;SDS011;43754;56.992;24.292;2023-03-19T06:34:39;14.13;;;8.82;;
57947;SDS011;43754;56.992;24.292;2023-03-19T06:37:11;14.93;;;8.23;;
57947;SDS011;43754;56.992;24.292;2023-03-19T06:39:43;15.40;;;9.82;;
57947;SDS011;43754;56.992;24.292;2023-03-19T06:42:15;18.30;;;9.65;;
57947;SDS011;43754;56.992;24.292;2023-03-19T06:44:51;18.30;;;10.00;;
57947;SDS011;43754;56.992;24.292;2023-03-19T06:47:24;22.67;;;12.40;;
57947;SDS011;43754;56.992;24.292;2023-03-19T06:49:57;29.30;;;14.95;;
57947;SDS011;43754;56.992;24.292;2023-03-19T06:52:31;22.25;;;10.75;;
57947;SDS011;43754;56.992;24.292;2023-03-19T06:55:03;29.77;;;15.15;;
57947;SDS011;43754;56.992;24.292;2023-03-19T06:57:36;21.25;;;12.30;;
57947;SDS011;43754;56.992;24.292;2023-03-19T07:00:09;17.13;;;10.38;;
57947;SDS011;43754;56.992;24.292;2023-03-19T07:02:42;17.02;;;10.05;;
57947;SDS011;43754;56.992;24.292;2023-03-19T07:05:16;18.20;;;11.43;;
57947;SDS011;43754;56.992;24.292;2023-03-19T07:07:48;16.13;;;10.75;;
57947;SDS011;43754;56.992;24.292;2023-03-19T07:10:20;15.75;;;11.77;;
57947;SDS011;43754;56.992;24.292;2023-03-19T07:12:52;15.70;;;9.98;;
57947;SDS011;43754;56.992;24.292;2023-03-19T07:15:24;17.95;;;10.88;;
57947;SDS011;43754;56.992;24.292;2023-03-19T07:17:56;20.45;;;11.63;;
57947;SDS011;43754;56.992;24.292;2023-03-19T07:20:30;15.23;;;9.95;;
57947;SDS011;43754;56.992;24.292;2023-03-19T07:23:02;15.82;;;10.25;;
57947;SDS011;43754;56.992;24.292;2023-03-19T07:25:34;23.85;;;14.50;;
57947;SDS011;43754;56.992;24.292;2023-03-19T07:28:06;18.50;;;10.90;;
57947;SDS011;43754;56.992;24.292;2023-03-19T07:30:39;15.00;;;9.73;;
57947;SDS011;43754;56.992;24.292;2023-03-19T07:33:14;15.40;;;10.05;;
57947;SDS011;43754;56.992;24.292;2023-03-19T07:35:48;15.23;;;9.60;;
57947;SDS011;43754;56.992;24.292;2023-03-19T07:38:21;16.50;;;10.35;;
57947;SDS011;43754;56.992;24.292;2023-03-19T07:40:53;14.38;;;9.68;;
57947;SDS011;43754;56.992;24.292;2023-03-19T07:43:33;14.35;;;9.82;;
57947;SDS011;43754;56.992;24.292;2023-03-19T07:46:05;20.77;;;11.50;;
57947;SDS011;43754;56.992;24.292;2023-03-19T07:48:38;15.63;;;10.07;;
57947;SDS011;43754;56.992;24.292;2023-03-19T07:51:11;26.05;;;22.13;;
57947;SDS011;43754;56.992;24.292;2023-03-19T07:53:43;15.70;;;11.95;;
57947;SDS011;43754;56.992;24.292;2023-03-19T07:56:15;18.02;;;11.57;;
57947;SDS011;43754;56.992;24.292;2023-03-19T07:58:47;22.92;;;13.23;;
57947;SDS011;43754;56.992;24.292;2023-03-19T08:01:20;16.40;;;12.25;;
57947;SDS011;43754;56.992;24.292;2023-03-19T08:03:52;14.90;;;10.07;;
57947;SDS011;43754;56.992;24.292;2023-03-19T08:06:25;17.23;;;11.38;;
57947;SDS011;43754;56.992;24.292;2023-03-19T08:08:58;14.98;;;10.45;;
57947;SDS011;43754;56.992;24.292;2023-03-19T08:11:30;16.85;;;12.15;;
57947;SDS011;43754;56.992;24.292;2023-03-19T08:14:02;17.13;;;10.88;;
57947;SDS011;43754;56.992;24.292;2023-03-19T08:16:34;16.60;;;10.27;;
57947;SDS011;43754;56.992;24.292;2023-03-19T08:19:06;15.98;;;11.70;;
57947;SDS011;43754;56.992;24.292;2023-03-19T08:21:41;14.00;;;10.13;;
57947;SDS011;43754;56.992;24.292;2023-03-19T08:24:13;14.98;;;10.13;;
57947;SDS011;43754;56.992;24.292;2023-03-19T08:26:45;15.57;;;10.20;;
57947;SDS011;43754;56.992;24.292;2023-03-19T08:29:17;13.70;;;9.80;;
57947;SDS011;43754;56.992;24.292;2023-03-19T08:31:49;16.55;;;10.55;;
57947;SDS011;43754;56.992;24.292;2023-03-19T08:34:22;14.05;;;9.25;;
57947;SDS011;43754;56.992;24.292;2023-03-19T08:36:56;13.95;;;8.85;;
57947;SDS011;43754;56.992;24.292;2023-03-19T08:39:28;15.15;;;10.05;;
57947;SDS011;43754;56.992;24.292;2023-03-19T08:42:00;15.77;;;11.25;;
57947;SDS011;43754;56.992;24.292;2023-03-19T08:44:32;15.52;;;10.27;;
57947;SDS011;43754;56.992;24.292;2023-03-19T08:47:04;15.57;;;10.13;;
57947;SDS011;43754;56.992;24.292;2023-03-19T08:49:36;12.02;;;8.68;;
57947;SDS011;43754;56.992;24.292;2023-03-19T08:52:10;14.65;;;9.52;;
57947;SDS011;43754;56.992;24.292;2023-03-19T08:54:42;14.60;;;9.75;;
57947;SDS011;43754;56.992;24.292;2023-03-19T08:57:14;19.50;;;10.70;;
57947;SDS011;43754;56.992;24.292;2023-03-19T08:59:46;15.43;;;10.38;;
57947;SDS011;43754;56.992;24.292;2023-03-19T09:02:18;15.48;;;9.90;;
57947;SDS011;43754;56.992;24.292;2023-03-19T09:04:50;14.48;;;9.68;;
57947;SDS011;43754;56.992;24.292;2023-03-19T09:07:24;14.32;;;9.50;;
57947;SDS011;43754;56.992;24.292;2023-03-19T09:09:56;14.05;;;10.05;;
57947;SDS011;43754;56.992;24.292;2023-03-19T09:12:28;12.73;;;9.20;;
57947;SDS011;43754;56.992;24.292;2023-03-19T09:15:01;13.80;;;9.30;;
57947;SDS011;43754;56.992;24.292;2023-03-19T09:17:33;14.02;;;9.32;;
57947;SDS011;43754;56.992;24.292;2023-03-19T09:20:06;14.13;;;9.23;;
57947;SDS011;43754;56.992;24.292;2023-03-19T09:22:41;17.42;;;11.43;;
57947;SDS011;43754;56.992;24.292;2023-03-19T09:25:13;15.18;;;10.27;;
57947;SDS011;43754;56.992;24.292;2023-03-19T09:27:45;15.30;;;10.20;;
57947;SDS011;43754;56.992;24.292;2023-03-19T09:30:17;15.27;;;9.70;;
57947;SDS011;43754;56.992;24.292;2023-03-19T09:32:49;16.70;;;11.82;;
57947;SDS011;43754;56.992;24.292;2023-03-19T09:35:21;14.48;;;11.20;;
57947;SDS011;43754;56.992;24.292;2023-03-19T09:37:54;19.15;;;11.68;;
57947;SDS011;43754;56.992;24.292;2023-03-19T09:40:28;17.60;;;12.13;;
57947;SDS011;43754;56.992;24.292;2023-03-19T09:43:10;17.77;;;10.68;;
57947;SDS011;43754;56.992;24.292;2023-03-19T09:46:00;19.40;;;13.38;;
57947;SDS011;43754;56.992;24.292;2023-03-19T09:48:38;21.05;;;12.88;;
57947;SDS011;43754;56.992;24.292;2023-03-19T09:51:15;22.85;;;12.10;;
57947;SDS011;43754;56.992;24.292;2023-03-19T09:53:54;17.02;;;10.90;;
57947;SDS011;43754;56.992;24.292;2023-03-19T09:56:29;16.05;;;12.25;;
57947;SDS011;43754;56.992;24.292;2023-03-19T09:59:03;16.75;;;10.80;;
57947;SDS011;43754;56.992;24.292;2023-03-19T10:01:35;47.20;;;17.67;;
57947;SDS011;43754;56.992;24.292;2023-03-19T10:04:18;106.13;;;32.85;;
57947;SDS011;43754;56.992;24.292;2023-03-19T10:07:19;36.08;;;16.77;;
57947;SDS011;43754;56.992;24.292;2023-03-19T10:10:06;19.95;;;11.82;;
57947;SDS011;43754;56.992;24.292;2023-03-19T10:12:55;17.98;;;11.57;;
57947;SDS011;43754;56.992;24.292;2023-03-19T10:15:38;18.23;;;11.60;;
57947;SDS011;43754;56.992;24.292;2023-03-19T10:18:15;20.98;;;13.25;;
57947;SDS011;43754;56.992;24.292;2023-03-19T10:20:50;16.77;;;11.07;;
57947;SDS011;43754;56.992;24.292;2023-03-19T10:23:33;29.98;;;16.13;;
57947;SDS011;43754;56.992;24.292;2023-03-19T10:26:13;20.70;;;12.93;;
57947;SDS011;43754;56.992;24.292;2023-03-19T10:28:51;15.75;;;11.10;;
57947;SDS011;43754;56.992;24.292;2023-03-19T10:31:34;18.25;;;9.88;;
57947;SDS011;43754;56.992;24.292;2023-03-19T10:34:18;17.02;;;11.25;;
57947;SDS011;43754;56.992;24.292;2023-03-19T10:37:02;15.27;;;10.85;;
57947;SDS011;43754;56.992;24.292;2023-03-19T10:39:36;20.05;;;12.00;;
57947;SDS011;43754;56.992;24.292;2023-03-19T10:42:25;20.83;;;12.60;;
57947;SDS011;43754;56.992;24.292;2023-03-19T10:45:12;24.65;;;13.70;;
57947;SDS011;43754;56.992;24.292;2023-03-19T10:47:50;23.90;;;12.98;;
57947;SDS011;43754;56.992;24.292;2023-03-19T10:50:27;15.27;;;11.68;;
57947;SDS011;43754;56.992;24.292;2023-03-19T10:53:03;18.58;;;11.90;;
57947;SDS011;43754;56.992;24.292;2023-03-19T10:55:38;18.77;;;12.48;;
57947;SDS011;43754;56.992;24.292;2023-03-19T10:58:19;19.92;;;13.75;;
57947;SDS011;43754;56.992;24.292;2023-03-19T11:00:54;17.77;;;12.57;;
57947;SDS011;43754;56.992;24.292;2023-03-19T11:03:29;22.98;;;12.68;;
57947;SDS011;43754;56.992;24.292;2023-03-19T11:06:04;18.67;;;12.38;;
57947;SDS011;43754;56.992;24.292;2023-03-19T11:08:38;22.08;;;14.07;;
57947;SDS011;43754;56.992;24.292;2023-03-19T11:11:21;22.30;;;13.00;;
57947;SDS011;43754;56.992;24.292;2023-03-19T11:13:56;23.50;;;14.55;;
57947;SDS011;43754;56.992;24.292;2023-03-19T11:16:28;24.25;;;16.05;;
57947;SDS011;43754;56.992;24.292;2023-03-19T11:19:00;28.33;;;17.65;;
57947;SDS011;43754;56.992;24.292;2023-03-19T11:21:32;25.88;;;16.17;;
57947;SDS011;43754;56.992;24.292;2023-03-19T11:24:08;27.58;;;17.25;;
57947;SDS011;43754;56.992;24.292;2023-03-19T11:26:43;27.83;;;16.98;;
57947;SDS011;43754;56.992;24.292;2023-03-19T11:29:27;22.75;;;14.63;;
57947;SDS011;43754;56.992;24.292;2023-03-19T11:32:02;21.65;;;13.90;;
57947;SDS011;43754;56.992;24.292;2023-03-19T11:34:52;20.63;;;12.82;;
57947;SDS011;43754;56.992;24.292;2023-03-19T11:37:31;20.65;;;12.73;;
57947;SDS011;43754;56.992;24.292;2023-03-19T11:40:15;16.10;;;11.80;;
57947;SDS011;43754;56.992;24.292;2023-03-19T11:43:03;21.48;;;12.35;;
57947;SDS011;43754;56.992;24.292;2023-03-19T11:45:52;19.95;;;13.15;;
57947;SDS011;43754;56.992;24.292;2023-03-19T11:48:34;25.58;;;14.75;;
57947;SDS011;43754;56.992;24.292;2023-03-19T11:51:18;22.48;;;13.50;;
57947;SDS011;43754;56.992;24.292;2023-03-19T11:53:58;25.15;;;14.00;;
57947;SDS011;43754;56.992;24.292;2023-03-19T11:56:36;15.37;;;10.70;;
57947;SDS011;43754;56.992;24.292;2023-03-19T12:05:45;28.25;;;16.85;;
57947;SDS011;43754;56.992;24.292;2023-03-19T12:08:30;21.65;;;14.80;;
57947;SDS011;43754;56.992;24.292;2023-03-19T12:11:19;21.75;;;13.48;;
57947;SDS011;43754;56.992;24.292;2023-03-19T12:13:59;24.05;;;14.57;;
57947;SDS011;43754;56.992;24.292;2023-03-19T12:16:44;25.60;;;15.27;;
57947;SDS011;43754;56.992;24.292;2023-03-19T12:19:33;38.22;;;25.52;;
57947;SDS011;43754;56.992;24.292;2023-03-19T12:22:31;43.28;;;27.58;;
57947;SDS011;43754;56.992;24.292;2023-03-19T12:25:19;36.83;;;24.90;;
57947;SDS011;43754;56.992;24.292;2023-03-19T12:27:59;26.52;;;18.17;;
57947;SDS011;43754;56.992;24.292;2023-03-19T12:30:37;28.40;;;17.67;;
57947;SDS011;43754;56.992;24.292;2023-03-19T12:33:21;31.42;;;18.92;;
57947;SDS011;43754;56.992;24.292;2023-03-19T12:36:07;20.70;;;13.27;;
57947;SDS011;43754;56.992;24.292;2023-03-19T12:38:45;19.63;;;13.07;;
57947;SDS011;43754;56.992;24.292;2023-03-19T12:41:20;18.60;;;13.73;;
57947;SDS011;43754;56.992;24.292;2023-03-19T12:43:55;20.90;;;15.13;;
57947;SDS011;43754;56.992;24.292;2023-03-19T12:46:34;17.92;;;12.40;;
57947;SDS011;43754;56.992;24.292;2023-03-19T12:49:10;20.75;;;13.85;;
57947;SDS011;43754;56.992;24.292;2023-03-19T12:51:48;20.73;;;14.02;;
57947;SDS011;43754;56.992;24.292;2023-03-19T12:54:24;23.88;;;16.98;;
57947;SDS011;43754;56.992;24.292;2023-03-19T12:57:00;26.55;;;18.55;;
57947;SDS011;43754;56.992;24.292;2023-03-19T12:59:38;24.52;;;14.80;;
57947;SDS011;43754;56.992;24.292;2023-03-19T13:02:17;22.23;;;13.52;;
57947;SDS011;43754;56.992;24.292;2023-03-19T13:04:53;23.15;;;14.13;;
57947;SDS011;43754;56.992;24.292;2023-03-19T13:07:30;25.30;;;16.67;;
57947;SDS011;43754;56.992;24.292;2023-03-19T13:10:11;83.57;;;59.40;;
57947;SDS011;43754;56.992;24.292;2023-03-19T13:12:48;43.75;;;30.50;;
57947;SDS011;43754;56.992;24.292;2023-03-19T13:15:23;23.85;;;16.15;;
57947;SDS011;43754;56.992;24.292;2023-03-19T13:18:02;30.25;;;20.60;;
57947;SDS011;43754;56.992;24.292;2023-03-19T13:20:49;26.83;;;19.58;;
57947;SDS011;43754;56.992;24.292;2023-03-19T13:23:36;26.60;;;18.23;;
57947;SDS011;43754;56.992;24.292;2023-03-19T13:26:11;24.98;;;15.88;;
57947;SDS011;43754;56.992;24.292;2023-03-19T13:28:55;29.90;;;19.70;;
57947;SDS011;43754;56.992;24.292;2023-03-19T13:31:32;21.17;;;15.13;;
57947;SDS011;43754;56.992;24.292;2023-03-19T13:34:06;26.60;;;15.27;;
57947;SDS011;43754;56.992;24.292;2023-03-19T13:36:52;22.17;;;14.57;;
57947;SDS011;43754;56.992;24.292;2023-03-19T13:39:33;46.15;;;27.67;;
57947;SDS011;43754;56.992;24.292;2023-03-19T13:42:33;34.00;;;21.20;;
57947;SDS011;43754;56.992;24.292;2023-03-19T13:45:26;30.45;;;18.30;;
57947;SDS011;43754;56.992;24.292;2023-03-19T13:51:13;59.22;;;35.65;;
57947;SDS011;43754;56.992;24.292;2023-03-19T13:54:03;33.60;;;21.92;;
57947;SDS011;43754;56.992;24.292;2023-03-19T13:59:56;27.17;;;17.85;;
57947;SDS011;43754;56.992;24.292;2023-03-19T14:02:51;46.33;;;30.48;;
57947;SDS011;43754;56.992;24.292;2023-03-19T14:05:24;46.10;;;29.83;;
57947;SDS011;43754;56.992;24.292;2023-03-19T14:08:12;35.45;;;21.65;;
57947;SDS011;43754;56.992;24.292;2023-03-19T14:10:50;27.55;;;17.55;;
57947;SDS011;43754;56.992;24.292;2023-03-19T14:13:26;26.90;;;18.30;;
57947;SDS011;43754;56.992;24.292;2023-03-19T14:16:08;34.50;;;21.27;;
57947;SDS011;43754;56.992;24.292;2023-03-19T14:18:47;44.95;;;25.60;;
57947;SDS011;43754;56.992;24.292;2023-03-19T14:21:30;37.80;;;24.02;;
57947;SDS011;43754;56.992;24.292;2023-03-19T14:24:20;40.85;;;25.10;;
57947;SDS011;43754;56.992;24.292;2023-03-19T14:27:20;32.00;;;19.02;;
57947;SDS011;43754;56.992;24.292;2023-03-19T14:29:58;28.75;;;19.60;;
57947;SDS011;43754;56.992;24.292;2023-03-19T14:32:40;30.35;;;20.02;;
57947;SDS011;43754;56.992;24.292;2023-03-19T14:35:18;43.13;;;27.10;;
57947;SDS011;43754;56.992;24.292;2023-03-19T14:37:52;37.25;;;24.23;;
57947;SDS011;43754;56.992;24.292;2023-03-19T14:40:25;32.03;;;21.98;;
57947;SDS011;43754;56.992;24.292;2023-03-19T14:43:02;36.33;;;22.92;;
57947;SDS011;43754;56.992;24.292;2023-03-19T14:45:48;33.10;;;20.65;;
57947;SDS011;43754;56.992;24.292;2023-03-19T14:51:52;30.88;;;19.30;;
57947;SDS011;43754;56.992;24.292;2023-03-19T14:54:45;29.92;;;18.40;;
57947;SDS011;43754;56.992;24.292;2023-03-19T14:57:25;26.77;;;17.70;;
57947;SDS011;43754;56.992;24.292;2023-03-19T14:59:58;27.65;;;19.52;;
57947;SDS011;43754;56.992;24.292;2023-03-19T15:02:32;28.40;;;19.05;;
57947;SDS011;43754;56.992;24.292;2023-03-19T15:05:08;36.20;;;26.48;;
57947;SDS011;43754;56.992;24.292;2023-03-19T15:07:49;32.88;;;21.45;;
57947;SDS011;43754;56.992;24.292;2023-03-19T15:10:26;27.75;;;18.80;;
57947;SDS011;43754;56.992;24.292;2023-03-19T15:16:12;29.85;;;19.52;;
57947;SDS011;43754;56.992;24.292;2023-03-19T15:19:02;25.40;;;16.92;;
57947;SDS011;43754;56.992;24.292;2023-03-19T15:21:35;28.55;;;17.67;;
57947;SDS011;43754;56.992;24.292;2023-03-19T15:24:12;25.15;;;16.80;;
57947;SDS011;43754;56.992;24.292;2023-03-19T15:26:45;26.27;;;18.20;;
57947;SDS011;43754;56.992;24.292;2023-03-19T15:29:28;30.30;;;20.00;;
57947;SDS011;43754;56.992;24.292;2023-03-19T15:32:01;37.53;;;23.65;;
57947;SDS011;43754;56.992;24.292;2023-03-19T15:34:39;35.55;;;23.58;;
57947;SDS011;43754;56.992;24.292;2023-03-19T15:37:14;45.42;;;26.42;;